Volgo-balt 229 — UHZF — position and weather

sailwx.info

Track history (hours):
 
Tides and Currents Weather Stations Pressure Air Temp Water Temp Dewpoint Dewpoint Depression Visibility Wind Speed Wind Dir Waves Ship Positions

Volgo-balt 229

Last reported at 2018-Apr-23 12:54 UTC. Time now 2018-Apr-23 13:47 UTC.
Position N 56°06' E 012°35'.

Length 113 m; draft 3.5 m.

Type: Ship. MMSI: 273336300.

Date/timePositionNaut miles runAvg speedWind from/ knotsBaromVisibWave heightAir tempDewpointWater temp
2018-Apr-23 12:54N 56°06' E 012°35'3 8.5
2018-Apr-23 12:30N 56°03' E 012°40'4 8.4
2018-Apr-23 12:00N 55°59' E 012°42'4 8.7
2018-Apr-23 11:30N 55°55' E 012°44'4 8.6
2018-Apr-23 11:00N 55°51' E 012°44'4 8.1
2018-Apr-23 10:30N 55°47' E 012°42'5 9.1
2018-Apr-23 10:00N 55°42' E 012°41'510.0
2018-Apr-23 09:30N 55°37' E 012°42'5 9.2
2018-Apr-23 09:00N 55°33' E 012°43'4 8.2
2018-Apr-23 08:30N 55°29' E 012°42'4 8.7
2018-Apr-23 08:00N 55°24' E 012°42'4 8.6
2018-Apr-23 07:29N 55°20' E 012°41'36 7.9
2018-Apr-23 02:54N 55°14' E 013°44'6 8.4
2018-Apr-23 02:12N 55°14' E 013°54'3 8.5
2018-Apr-23 01:50N 55°14' E 013°60'9 8.3
2018-Apr-23 00:41N 55°14' E 014°16'2 8.1
2018-Apr-23 00:28N 55°16' E 014°18'4 8.4
2018-Apr-23 00:00N 55°19' E 014°22'6 8.4
2018-Apr-22 23:19N 55°23' E 014°29'3 8.3
2018-Apr-22 23:00N 55°25' E 014°32'4 8.2
2018-Apr-22 22:29N 55°28' E 014°37'4 8.2
2018-Apr-22 22:00N 55°30' E 014°43'4 8.3
2018-Apr-22 21:30N 55°32' E 014°49'4 8.3
2018-Apr-22 21:00N 55°34' E 014°56'4 8.3
2018-Apr-22 20:30N 55°36' E 015°02'4 8.1
2018-Apr-22 20:00N 55°38' E 015°08'4 8.0
2018-Apr-22 19:30N 55°40' E 015°15'4 8.2
2018-Apr-22 19:00N 55°42' E 015°21'4 8.2
2018-Apr-22 18:30N 55°44' E 015°27'4 8.2
2018-Apr-22 18:00N 55°46' E 015°33'4 8.4
2018-Apr-22 17:30N 55°48' E 015°40'4 8.4
2018-Apr-22 17:00N 55°51' E 015°46'4 8.4
2018-Apr-22 16:30N 55°53' E 015°53'4 8.4
2018-Apr-22 16:00N 55°55' E 015°60'4 8.4
2018-Apr-22 15:30N 55°57' E 016°06'4 8.5
2018-Apr-22 15:00N 55°59' E 016°12'4 8.4
2018-Apr-22 14:30N 56°01' E 016°19'4 8.6
2018-Apr-22 14:00N 56°03' E 016°26'4 8.7
2018-Apr-22 13:30N 56°05' E 016°32'4 8.5
2018-Apr-22 13:00N 56°08' E 016°39'4 8.5
2018-Apr-22 12:30N 56°10' E 016°45'4 8.5
2018-Apr-22 12:00N 56°13' E 016°51'4 8.5
2018-Apr-22 11:30N 56°15' E 016°57'  
2018-Apr-17 12:55N 56°05' E 016°51'4 8.7
2018-Apr-17 12:30N 56°03' E 016°46'4 8.7
2018-Apr-17 12:00N 56°01' E 016°39'4 8.8
2018-Apr-17 11:30N 55°59' E 016°33'4 8.7
2018-Apr-17 11:01N 55°57' E 016°26'4 8.5
2018-Apr-17 10:30N 55°55' E 016°19'4 8.5
2018-Apr-17 10:00N 55°52' E 016°13'4 8.4
2018-Apr-17 09:30N 55°50' E 016°06'4 8.5
2018-Apr-17 09:01N 55°48' E 015°59'4 8.6
2018-Apr-17 08:31N 55°46' E 015°53'4 8.5
2018-Apr-17 08:01N 55°44' E 015°47'4 8.5
2018-Apr-17 07:30N 55°41' E 015°40'4 8.3
2018-Apr-17 07:01N 55°40' E 015°34'4 8.4
2018-Apr-17 06:30N 55°38' E 015°27'4 8.5
2018-Apr-17 06:01N 55°36' E 015°20'4 8.4
2018-Apr-17 05:30N 55°34' E 015°14'4 8.3
2018-Apr-17 05:00N 55°32' E 015°07'4 8.4
2018-Apr-17 04:31N 55°30' E 015°01'4 8.3
2018-Apr-17 04:01N 55°28' E 014°55'5 8.3
2018-Apr-17 03:25N 55°25' E 014°47'4 8.5
2018-Apr-17 02:56N 55°23' E 014°41'4 8.7
2018-Apr-17 02:30N 55°20' E 014°36'4 8.5
2018-Apr-17 01:59N 55°17' E 014°31'6 8.5
2018-Apr-17 01:17N 55°13' E 014°24'3 8.1
2018-Apr-17 00:58N 55°12' E 014°20'7 8.7
2018-Apr-17 00:09N 55°11' E 014°07'4 8.5
2018-Apr-16 23:43N 55°11' E 014°01'23 8.3
2018-Apr-16 20:56N 55°13' E 013°21'4 8.8
2018-Apr-16 20:30N 55°13' E 013°14'4 8.5
2018-Apr-16 20:00N 55°14' E 013°07'4 8.4
2018-Apr-16 19:28N 55°14' E 012°59'4 8.5
2018-Apr-16 19:00N 55°15' E 012°52'4 8.4
2018-Apr-16 18:31N 55°16' E 012°46'4 8.4
2018-Apr-16 18:01N 55°18' E 012°39'4 8.1
2018-Apr-16 17:31N 55°21' E 012°33'4 8.1
2018-Apr-16 17:01N 55°23' E 012°28'4 8.4
2018-Apr-16 16:30N 55°26' E 012°23'4 8.0
2018-Apr-16 16:00N 55°28' E 012°16'2 3.8
2018-Apr-16 15:25N 55°27' E 012°12'0 0.0
2018-Apr-16 14:55N 55°27' E 012°12'0 0.0
2018-Apr-16 14:16N 55°27' E 012°12'0 0.0
2018-Apr-16 13:49N 55°27' E 012°12'0 0.0
2018-Apr-16 13:25N 55°27' E 012°12'0 0.0
2018-Apr-16 12:55N 55°27' E 012°12'0 0.0
2018-Apr-16 12:13N 55°27' E 012°12'0 0.0
2018-Apr-16 11:58N 55°27' E 012°12'0 0.0
2018-Apr-16 11:25N 55°27' E 012°12'0 0.0
2018-Apr-16 10:07N 55°27' E 012°12'0 0.0
2018-Apr-16 09:58N 55°27' E 012°12'0 0.0
2018-Apr-16 09:28N 55°27' E 012°12'0 0.0
2018-Apr-16 08:49N 55°27' E 012°12'0 0.0
2018-Apr-16 08:22N 55°27' E 012°12'0 0.0
2018-Apr-16 07:55N 55°27' E 012°12'0 0.0
2018-Apr-16 07:07N 55°27' E 012°12'0 0.0
2018-Apr-16 06:55N 55°27' E 012°12'0 0.0
2018-Apr-16 06:16N 55°27' E 012°12'0 0.0
2018-Apr-16 05:52N 55°27' E 012°12'0 0.0
2018-Apr-16 05:28N 55°27' E 012°12'0 0.0
2018-Apr-16 04:58N 55°27' E 012°12'0 0.0
2018-Apr-16 04:22N 55°27' E 012°12'0 0.0
2018-Apr-16 03:55N 55°27' E 012°12'0 0.0
2018-Apr-16 03:28N 55°27' E 012°12'0 0.0
2018-Apr-16 02:55N 55°27' E 012°12'0 0.0
2018-Apr-16 02:28N 55°27' E 012°12'0 0.0
2018-Apr-16 01:49N 55°27' E 012°12'0 0.0
2018-Apr-16 01:25N 55°27' E 012°12'0 0.0
2018-Apr-16 00:58N 55°27' E 012°12'0 0.0
2018-Apr-16 00:25N 55°27' E 012°12'0 0.0
2018-Apr-15 23:58N 55°27' E 012°12'0 0.0
2018-Apr-15 23:28N 55°27' E 012°12'0 0.0
2018-Apr-15 22:55N 55°27' E 012°12'0 0.0
2018-Apr-15 22:28N 55°27' E 012°12'0 0.0
2018-Apr-15 21:55N 55°27' E 012°12'0 0.0
2018-Apr-15 21:25N 55°27' E 012°12'0 0.0
2018-Apr-15 20:58N 55°27' E 012°12'0 0.0
2018-Apr-15 20:28N 55°27' E 012°12'0 0.0
2018-Apr-15 19:58N 55°27' E 012°12'0 0.2
2018-Apr-15 19:29N 55°27' E 012°12'0 0.1
2018-Apr-15 18:35N 55°27' E 012°12'0 0.0
2018-Apr-15 18:17N 55°27' E 012°12'0 0.0
2018-Apr-15 17:56N 55°27' E 012°12'0 0.0
2018-Apr-15 17:14N 55°27' E 012°12'0 0.0
2018-Apr-15 16:56N 55°27' E 012°12'0 0.0
2018-Apr-15 16:29N 55°27' E 012°12'0 0.0
2018-Apr-15 15:59N 55°27' E 012°12'0 0.0
2018-Apr-15 15:26N 55°27' E 012°12'0 0.0
2018-Apr-15 14:56N 55°27' E 012°12'0 0.0
2018-Apr-15 14:29N 55°27' E 012°12'0 0.0
2018-Apr-15 13:56N 55°27' E 012°12'0 0.0
2018-Apr-15 13:23N 55°27' E 012°12'0 0.0
2018-Apr-15 12:59N 55°27' E 012°12'0 0.0
2018-Apr-15 12:19N 55°27' E 012°12'0 0.0
2018-Apr-15 11:58N 55°27' E 012°12'0 0.0
2018-Apr-15 11:22N 55°27' E 012°12'0 0.0
2018-Apr-15 10:43N 55°27' E 012°12'0 0.0
2018-Apr-15 10:28N 55°27' E 012°12'0 0.0
2018-Apr-15 09:52N 55°27' E 012°12'0 0.0
2018-Apr-15 09:25N 55°27' E 012°12'0 0.0
2018-Apr-15 08:43N 55°27' E 012°12'0 0.0
2018-Apr-15 08:19N 55°27' E 012°12'0 0.0
2018-Apr-15 07:40N 55°27' E 012°12'0 0.0
2018-Apr-15 07:22N 55°27' E 012°12'0 0.0
2018-Apr-15 06:58N 55°27' E 012°12'0 0.0
2018-Apr-15 06:25N 55°27' E 012°12'0 0.0
2018-Apr-15 05:52N 55°27' E 012°12'0 0.0
2018-Apr-15 05:10N 55°27' E 012°12'0 0.0
2018-Apr-15 04:58N 55°27' E 012°12'0 0.0
2018-Apr-15 04:25N 55°27' E 012°12'0 0.0
2018-Apr-15 03:52N 55°27' E 012°12'0 0.0
2018-Apr-15 03:28N 55°27' E 012°12'0 0.0
2018-Apr-15 02:55N 55°27' E 012°12'0 0.0
2018-Apr-15 02:28N 55°27' E 012°12'0 0.0
2018-Apr-15 01:52N 55°27' E 012°12'0 0.0
2018-Apr-15 01:28N 55°27' E 012°12'0 0.0
2018-Apr-15 00:58N 55°27' E 012°12'0 0.0
2018-Apr-15 00:28N 55°27' E 012°12'0 0.0
2018-Apr-14 23:58N 55°27' E 012°12'0 0.0
2018-Apr-14 23:28N 55°27' E 012°12'0 0.0
2018-Apr-14 22:55N 55°27' E 012°12'0 0.0
2018-Apr-14 22:28N 55°27' E 012°12'0 0.0
2018-Apr-14 21:58N 55°27' E 012°12'0 0.0
2018-Apr-14 21:25N 55°27' E 012°12'0 0.0
2018-Apr-14 20:55N 55°27' E 012°12'0 0.0
2018-Apr-14 20:25N 55°27' E 012°12'0 0.0
2018-Apr-14 19:52N 55°27' E 012°12'0 0.0
2018-Apr-14 19:25N 55°27' E 012°12'0 0.0
2018-Apr-14 18:55N 55°27' E 012°12'0 0.0
2018-Apr-14 18:25N 55°27' E 012°12'0 0.0
2018-Apr-14 17:55N 55°27' E 012°12'0 0.0
2018-Apr-14 17:07N 55°27' E 012°12'0 0.0
2018-Apr-14 16:52N 55°27' E 012°12'0 0.0
2018-Apr-14 16:31N 55°27' E 012°12'0 0.0
2018-Apr-14 15:58N 55°27' E 012°12'0 0.0
2018-Apr-14 15:31N 55°27' E 012°12'0 0.0
2018-Apr-14 14:37N 55°27' E 012°12'0 0.0
2018-Apr-14 14:30N 55°27' E 012°12'0 0.0
2018-Apr-14 13:54N 55°27' E 012°12'0 0.0
2018-Apr-14 13:18N 55°27' E 012°12'0 0.0
2018-Apr-14 10:42N 55°27' E 012°12'0 0.0
2018-Apr-14 10:12N 55°27' E 012°12'0 0.0
2018-Apr-14 09:48N 55°27' E 012°12'0 0.0
2018-Apr-14 09:30N 55°27' E 012°12'0 0.0
2018-Apr-14 08:42N 55°27' E 012°12'0 0.0
2018-Apr-14 08:15N 55°27' E 012°12'0 0.0
2018-Apr-14 08:00N 55°27' E 012°12'0 0.0
2018-Apr-14 07:24N 55°27' E 012°12'0 0.0
2018-Apr-14 07:00N 55°27' E 012°12'0 0.0
2018-Apr-14 06:09N 55°27' E 012°12'0 0.0
2018-Apr-14 02:48N 55°27' E 012°12'0 0.0
2018-Apr-14 02:21N 55°27' E 012°12'0 0.0
2018-Apr-14 02:00N 55°27' E 012°12'0 0.0
2018-Apr-14 00:18N 55°27' E 012°12'0 0.0
2018-Apr-13 23:57N 55°27' E 012°12'0 0.0
2018-Apr-13 23:27N 55°27' E 012°12'0 0.0
2018-Apr-13 22:54N 55°27' E 012°12'0 0.0
2018-Apr-13 22:24N 55°27' E 012°12'0 0.0
2018-Apr-13 21:24N 55°27' E 012°12'0 0.0
2018-Apr-13 21:00N 55°27' E 012°12'0 0.0
2018-Apr-13 20:27N 55°27' E 012°12'0 0.0
2018-Apr-13 20:00N 55°27' E 012°12'0 0.0
2018-Apr-13 18:06N 55°27' E 012°12'0 0.0
2018-Apr-13 17:30N 55°27' E 012°12'0 0.0
2018-Apr-13 17:00N 55°27' E 012°12'0 0.0
2018-Apr-13 16:30N 55°27' E 012°12'0 0.0
2018-Apr-13 14:42N 55°27' E 012°12'0 0.0
2018-Apr-13 14:24N 55°27' E 012°12'  
Track history (hours):
 
Tides and Currents Weather Stations Pressure Air Temp Water Temp Dewpoint Dewpoint Depression Visibility Wind Speed Wind Dir Waves Ship Positions

Volgo-balt 229

Last reported at 2018-Apr-23 12:54 UTC. Time now 2018-Apr-23 13:47 UTC.
Position N 56°06' E 012°35'.

Length 113 m; draft 3.5 m.

Type: Ship. MMSI: 273336300.

Date/timePositionNaut miles runAvg speedWind from/ knotsBaromVisibWave heightAir tempDewpointWater temp
2018-Apr-23 12:54N 56°06' E 012°35'3 8.5
2018-Apr-23 12:30N 56°03' E 012°40'4 8.4
2018-Apr-23 12:00N 55°59' E 012°42'4 8.7
2018-Apr-23 11:30N 55°55' E 012°44'4 8.6
2018-Apr-23 11:00N 55°51' E 012°44'4 8.1
2018-Apr-23 10:30N 55°47' E 012°42'5 9.1
2018-Apr-23 10:00N 55°42' E 012°41'510.0
2018-Apr-23 09:30N 55°37' E 012°42'5 9.2
2018-Apr-23 09:00N 55°33' E 012°43'4 8.2
2018-Apr-23 08:30N 55°29' E 012°42'4 8.7
2018-Apr-23 08:00N 55°24' E 012°42'4 8.6
2018-Apr-23 07:29N 55°20' E 012°41'36 7.9
2018-Apr-23 02:54N 55°14' E 013°44'6 8.4
2018-Apr-23 02:12N 55°14' E 013°54'3 8.5
2018-Apr-23 01:50N 55°14' E 013°60'9 8.3
2018-Apr-23 00:41N 55°14' E 014°16'2 8.1
2018-Apr-23 00:28N 55°16' E 014°18'4 8.4
2018-Apr-23 00:00N 55°19' E 014°22'6 8.4
2018-Apr-22 23:19N 55°23' E 014°29'3 8.3
2018-Apr-22 23:00N 55°25' E 014°32'4 8.2
2018-Apr-22 22:29N 55°28' E 014°37'4 8.2
2018-Apr-22 22:00N 55°30' E 014°43'4 8.3
2018-Apr-22 21:30N 55°32' E 014°49'4 8.3
2018-Apr-22 21:00N 55°34' E 014°56'4 8.3
2018-Apr-22 20:30N 55°36' E 015°02'4 8.1
2018-Apr-22 20:00N 55°38' E 015°08'4 8.0
2018-Apr-22 19:30N 55°40' E 015°15'4 8.2
2018-Apr-22 19:00N 55°42' E 015°21'4 8.2
2018-Apr-22 18:30N 55°44' E 015°27'4 8.2
2018-Apr-22 18:00N 55°46' E 015°33'4 8.4
2018-Apr-22 17:30N 55°48' E 015°40'4 8.4
2018-Apr-22 17:00N 55°51' E 015°46'4 8.4
2018-Apr-22 16:30N 55°53' E 015°53'4 8.4
2018-Apr-22 16:00N 55°55' E 015°60'4 8.4
2018-Apr-22 15:30N 55°57' E 016°06'4 8.5
2018-Apr-22 15:00N 55°59' E 016°12'4 8.4
2018-Apr-22 14:30N 56°01' E 016°19'4 8.6
2018-Apr-22 14:00N 56°03' E 016°26'4 8.7
2018-Apr-22 13:30N 56°05' E 016°32'4 8.5
2018-Apr-22 13:00N 56°08' E 016°39'4 8.5
2018-Apr-22 12:30N 56°10' E 016°45'4 8.5
2018-Apr-22 12:00N 56°13' E 016°51'4 8.5
2018-Apr-22 11:30N 56°15' E 016°57'  
2018-Apr-17 12:55N 56°05' E 016°51'4 8.7
2018-Apr-17 12:30N 56°03' E 016°46'4 8.7
2018-Apr-17 12:00N 56°01' E 016°39'4 8.8
2018-Apr-17 11:30N 55°59' E 016°33'4 8.7
2018-Apr-17 11:01N 55°57' E 016°26'4 8.5
2018-Apr-17 10:30N 55°55' E 016°19'4 8.5
2018-Apr-17 10:00N 55°52' E 016°13'4 8.4
2018-Apr-17 09:30N 55°50' E 016°06'4 8.5
2018-Apr-17 09:01N 55°48' E 015°59'4 8.6
2018-Apr-17 08:31N 55°46' E 015°53'4 8.5
2018-Apr-17 08:01N 55°44' E 015°47'4 8.5
2018-Apr-17 07:30N 55°41' E 015°40'4 8.3
2018-Apr-17 07:01N 55°40' E 015°34'4 8.4
2018-Apr-17 06:30N 55°38' E 015°27'4 8.5
2018-Apr-17 06:01N 55°36' E 015°20'4 8.4
2018-Apr-17 05:30N 55°34' E 015°14'4 8.3
2018-Apr-17 05:00N 55°32' E 015°07'4 8.4
2018-Apr-17 04:31N 55°30' E 015°01'4 8.3
2018-Apr-17 04:01N 55°28' E 014°55'5 8.3
2018-Apr-17 03:25N 55°25' E 014°47'4 8.5
2018-Apr-17 02:56N 55°23' E 014°41'4 8.7
2018-Apr-17 02:30N 55°20' E 014°36'4 8.5
2018-Apr-17 01:59N 55°17' E 014°31'6 8.5
2018-Apr-17 01:17N 55°13' E 014°24'3 8.1
2018-Apr-17 00:58N 55°12' E 014°20'7 8.7
2018-Apr-17 00:09N 55°11' E 014°07'4 8.5
2018-Apr-16 23:43N 55°11' E 014°01'23 8.3
2018-Apr-16 20:56N 55°13' E 013°21'4 8.8
2018-Apr-16 20:30N 55°13' E 013°14'4 8.5
2018-Apr-16 20:00N 55°14' E 013°07'4 8.4
2018-Apr-16 19:28N 55°14' E 012°59'4 8.5
2018-Apr-16 19:00N 55°15' E 012°52'4 8.4
2018-Apr-16 18:31N 55°16' E 012°46'4 8.4
2018-Apr-16 18:01N 55°18' E 012°39'4 8.1
2018-Apr-16 17:31N 55°21' E 012°33'4 8.1
2018-Apr-16 17:01N 55°23' E 012°28'4 8.4
2018-Apr-16 16:30N 55°26' E 012°23'4 8.0
2018-Apr-16 16:00N 55°28' E 012°16'2 3.8
2018-Apr-16 15:25N 55°27' E 012°12'0 0.0
2018-Apr-16 14:55N 55°27' E 012°12'0 0.0
2018-Apr-16 14:16N 55°27' E 012°12'0 0.0
2018-Apr-16 13:49N 55°27' E 012°12'0 0.0
2018-Apr-16 13:25N 55°27' E 012°12'0 0.0
2018-Apr-16 12:55N 55°27' E 012°12'0 0.0
2018-Apr-16 12:13N 55°27' E 012°12'0 0.0
2018-Apr-16 11:58N 55°27' E 012°12'0 0.0
2018-Apr-16 11:25N 55°27' E 012°12'0 0.0
2018-Apr-16 10:07N 55°27' E 012°12'0 0.0
2018-Apr-16 09:58N 55°27' E 012°12'0 0.0
2018-Apr-16 09:28N 55°27' E 012°12'0 0.0
2018-Apr-16 08:49N 55°27' E 012°12'0 0.0
2018-Apr-16 08:22N 55°27' E 012°12'0 0.0
2018-Apr-16 07:55N 55°27' E 012°12'0 0.0
2018-Apr-16 07:07N 55°27' E 012°12'0 0.0
2018-Apr-16 06:55N 55°27' E 012°12'0 0.0
2018-Apr-16 06:16N 55°27' E 012°12'0 0.0
2018-Apr-16 05:52N 55°27' E 012°12'0 0.0
2018-Apr-16 05:28N 55°27' E 012°12'0 0.0
2018-Apr-16 04:58N 55°27' E 012°12'0 0.0
2018-Apr-16 04:22N 55°27' E 012°12'0 0.0
2018-Apr-16 03:55N 55°27' E 012°12'0 0.0
2018-Apr-16 03:28N 55°27' E 012°12'0 0.0
2018-Apr-16 02:55N 55°27' E 012°12'0 0.0
2018-Apr-16 02:28N 55°27' E 012°12'0 0.0
2018-Apr-16 01:49N 55°27' E 012°12'0 0.0
2018-Apr-16 01:25N 55°27' E 012°12'0 0.0
2018-Apr-16 00:58N 55°27' E 012°12'0 0.0
2018-Apr-16 00:25N 55°27' E 012°12'0 0.0
2018-Apr-15 23:58N 55°27' E 012°12'0 0.0
2018-Apr-15 23:28N 55°27' E 012°12'0 0.0
2018-Apr-15 22:55N 55°27' E 012°12'0 0.0
2018-Apr-15 22:28N 55°27' E 012°12'0 0.0
2018-Apr-15 21:55N 55°27' E 012°12'0 0.0
2018-Apr-15 21:25N 55°27' E 012°12'0 0.0
2018-Apr-15 20:58N 55°27' E 012°12'0 0.0
2018-Apr-15 20:28N 55°27' E 012°12'0 0.0
2018-Apr-15 19:58N 55°27' E 012°12'0 0.2
2018-Apr-15 19:29N 55°27' E 012°12'0 0.1
2018-Apr-15 18:35N 55°27' E 012°12'0 0.0
2018-Apr-15 18:17N 55°27' E 012°12'0 0.0
2018-Apr-15 17:56N 55°27' E 012°12'0 0.0
2018-Apr-15 17:14N 55°27' E 012°12'0 0.0
2018-Apr-15 16:56N 55°27' E 012°12'0 0.0
2018-Apr-15 16:29N 55°27' E 012°12'0 0.0
2018-Apr-15 15:59N 55°27' E 012°12'0 0.0
2018-Apr-15 15:26N 55°27' E 012°12'0 0.0
2018-Apr-15 14:56N 55°27' E 012°12'0 0.0
2018-Apr-15 14:29N 55°27' E 012°12'0 0.0
2018-Apr-15 13:56N 55°27' E 012°12'0 0.0
2018-Apr-15 13:23N 55°27' E 012°12'0 0.0
2018-Apr-15 12:59N 55°27' E 012°12'0 0.0
2018-Apr-15 12:19N 55°27' E 012°12'0 0.0
2018-Apr-15 11:58N 55°27' E 012°12'0 0.0
2018-Apr-15 11:22N 55°27' E 012°12'0 0.0
2018-Apr-15 10:43N 55°27' E 012°12'0 0.0
2018-Apr-15 10:28N 55°27' E 012°12'0 0.0
2018-Apr-15 09:52N 55°27' E 012°12'0 0.0
2018-Apr-15 09:25N 55°27' E 012°12'0 0.0
2018-Apr-15 08:43N 55°27' E 012°12'0 0.0
2018-Apr-15 08:19N 55°27' E 012°12'0 0.0
2018-Apr-15 07:40N 55°27' E 012°12'0 0.0
2018-Apr-15 07:22N 55°27' E 012°12'0 0.0
2018-Apr-15 06:58N 55°27' E 012°12'0 0.0
2018-Apr-15 06:25N 55°27' E 012°12'0 0.0
2018-Apr-15 05:52N 55°27' E 012°12'0 0.0
2018-Apr-15 05:10N 55°27' E 012°12'0 0.0
2018-Apr-15 04:58N 55°27' E 012°12'0 0.0
2018-Apr-15 04:25N 55°27' E 012°12'0 0.0
2018-Apr-15 03:52N 55°27' E 012°12'0 0.0
2018-Apr-15 03:28N 55°27' E 012°12'0 0.0
2018-Apr-15 02:55N 55°27' E 012°12'0 0.0
2018-Apr-15 02:28N 55°27' E 012°12'0 0.0
2018-Apr-15 01:52N 55°27' E 012°12'0 0.0
2018-Apr-15 01:28N 55°27' E 012°12'0 0.0
2018-Apr-15 00:58N 55°27' E 012°12'0 0.0
2018-Apr-15 00:28N 55°27' E 012°12'0 0.0
2018-Apr-14 23:58N 55°27' E 012°12'0 0.0
2018-Apr-14 23:28N 55°27' E 012°12'0 0.0
2018-Apr-14 22:55N 55°27' E 012°12'0 0.0
2018-Apr-14 22:28N 55°27' E 012°12'0 0.0
2018-Apr-14 21:58N 55°27' E 012°12'0 0.0
2018-Apr-14 21:25N 55°27' E 012°12'0 0.0
2018-Apr-14 20:55N 55°27' E 012°12'0 0.0
2018-Apr-14 20:25N 55°27' E 012°12'0 0.0
2018-Apr-14 19:52N 55°27' E 012°12'0 0.0
2018-Apr-14 19:25N 55°27' E 012°12'0 0.0
2018-Apr-14 18:55N 55°27' E 012°12'0 0.0
2018-Apr-14 18:25N 55°27' E 012°12'0 0.0
2018-Apr-14 17:55N 55°27' E 012°12'0 0.0
2018-Apr-14 17:07N 55°27' E 012°12'0 0.0
2018-Apr-14 16:52N 55°27' E 012°12'0 0.0
2018-Apr-14 16:31N 55°27' E 012°12'0 0.0
2018-Apr-14 15:58N 55°27' E 012°12'0 0.0
2018-Apr-14 15:31N 55°27' E 012°12'0 0.0
2018-Apr-14 14:37N 55°27' E 012°12'0 0.0
2018-Apr-14 14:30N 55°27' E 012°12'0 0.0
2018-Apr-14 13:54N 55°27' E 012°12'0 0.0
2018-Apr-14 13:18N 55°27' E 012°12'0 0.0
2018-Apr-14 10:42N 55°27' E 012°12'0 0.0
2018-Apr-14 10:12N 55°27' E 012°12'0 0.0
2018-Apr-14 09:48N 55°27' E 012°12'0 0.0
2018-Apr-14 09:30N 55°27' E 012°12'0 0.0
2018-Apr-14 08:42N 55°27' E 012°12'0 0.0
2018-Apr-14 08:15N 55°27' E 012°12'0 0.0
2018-Apr-14 08:00N 55°27' E 012°12'0 0.0
2018-Apr-14 07:24N 55°27' E 012°12'0 0.0
2018-Apr-14 07:00N 55°27' E 012°12'0 0.0
2018-Apr-14 06:09N 55°27' E 012°12'0 0.0
2018-Apr-14 02:48N 55°27' E 012°12'0 0.0
2018-Apr-14 02:21N 55°27' E 012°12'0 0.0
2018-Apr-14 02:00N 55°27' E 012°12'0 0.0
2018-Apr-14 00:18N 55°27' E 012°12'0 0.0
2018-Apr-13 23:57N 55°27' E 012°12'0 0.0
2018-Apr-13 23:27N 55°27' E 012°12'0 0.0
2018-Apr-13 22:54N 55°27' E 012°12'0 0.0
2018-Apr-13 22:24N 55°27' E 012°12'0 0.0
2018-Apr-13 21:24N 55°27' E 012°12'0 0.0
2018-Apr-13 21:00N 55°27' E 012°12'0 0.0
2018-Apr-13 20:27N 55°27' E 012°12'0 0.0
2018-Apr-13 20:00N 55°27' E 012°12'0 0.0
2018-Apr-13 18:06N 55°27' E 012°12'0 0.0
2018-Apr-13 17:30N 55°27' E 012°12'0 0.0
2018-Apr-13 17:00N 55°27' E 012°12'0 0.0
2018-Apr-13 16:30N 55°27' E 012°12'0 0.0
2018-Apr-13 14:42N 55°27' E 012°12'0 0.0
2018-Apr-13 14:24N 55°27' E 012°12'  

Dump ship's entire track history